Time;durP1;ratioP1;P1;durP2;ratioP2;P2;SDS_P1;SDS_P2;PMS_P1;PMS_P2;Temp;Humidity;BMP_temperature;BMP_pressure;BME280_temperature;BME280_humidity;BME280_pressure;Samples;Min_cycle;Max_cycle;Signal;HPM_P1;HPM_P2
2022/08/22 00:00:13;;;;;;;60.78;6.72;;;;;;;;;;1803748;79;21027;-70
2022/08/22 00:02:52;;;;;;;51.33;6.50;;;;;;;;;;1811228;79;21171;-70
2022/08/22 00:05:42;;;;;;;69.40;8.63;;;;;;;;;;1808033;79;21353;-71
2022/08/22 00:08:24;;;;;;;60.92;7.53;;;;;;;;;;1803824;79;21033;-70
2022/08/22 00:11:14;;;;;;;75.22;8.43;;;;;;;;;;1799448;79;21032;-70
2022/08/22 00:14:01;;;;;;;58.85;7.08;;;;;;;;;;1808832;78;21480;-70
2022/08/22 00:16:34;;;;;;;77.37;8.65;;;;;;;;;;1766738;79;21055;-70
2022/08/22 00:19:11;;;;;;;76.92;8.20;;;;;;;;;;1794972;78;21022;-70
2022/08/22 00:21:59;;;;;;;67.03;8.10;;;;;;;;;;1775095;79;21004;-70
2022/08/22 00:24:36;;;;;;;69.97;8.60;;;;;;;;;;1803214;79;21062;-70
2022/08/22 00:27:09;;;;;;;79.65;8.08;;;;;;;;;;1806661;79;21492;-70
2022/08/22 00:29:45;;;;;;;71.80;9.30;;;;;;;;;;1801226;79;21037;-70
2022/08/22 00:32:21;;;;;;;82.53;8.75;;;;;;;;;;1801458;79;21038;-70
2022/08/22 00:34:51;;;;;;;79.95;8.13;;;;;;;;;;1799936;78;21507;-70
2022/08/22 00:37:34;;;;;;;86.65;9.38;;;;;;;;;;1802307;78;20997;-70
2022/08/22 00:40:31;;;;;;;84.85;9.40;;;;;;;;;;1802644;79;21031;-70
2022/08/22 00:43:06;;;;;;;86.15;10.03;;;;;;;;;;1804370;79;21472;-72
2022/08/22 00:45:43;;;;;;;85.30;8.75;;;;;;;;;;1811151;78;21023;-70
2022/08/22 00:48:28;;;;;;;92.33;9.90;;;;;;;;;;1762701;80;21086;-70
2022/08/22 00:51:10;;;;;;;79.50;9.43;;;;;;;;;;1762690;80;21554;-70
2022/08/22 00:53:44;;;;;;;79.58;8.43;;;;;;;;;;1743538;80;21364;-70
2022/08/22 00:56:23;;;;;;;72.73;8.43;;;;;;;;;;1752673;81;20984;-71
2022/08/22 00:59:09;;;;;;;64.72;8.70;;;;;;;;;;1757532;80;21028;-71
2022/08/22 01:01:39;;;;;;;76.50;9.25;;;;;;;;;;1762719;80;21062;-70
2022/08/22 01:04:30;;;;;;;77.82;9.28;;;;;;;;;;1762044;80;21550;-70
2022/08/22 01:07:27;;;;;;;84.35;9.25;;;;;;;;;;1779368;80;21019;-70
2022/08/22 01:10:31;;;;;;;79.42;10.18;;;;;;;;;;1755890;80;21090;-70
2022/08/22 01:13:16;;;;;;;80.83;10.15;;;;;;;;;;1786484;80;21514;-70
2022/08/22 01:15:44;;;;;;;81.42;9.85;;;;;;;;;;1767113;80;21559;-70
2022/08/22 01:18:26;;;;;;;82.37;10.28;;;;;;;;;;1747448;80;21051;-70
2022/08/22 01:21:25;;;;;;;71.92;9.90;;;;;;;;;;1770180;80;21027;-70
2022/08/22 01:24:07;;;;;;;80.55;8.98;;;;;;;;;;1767356;80;20992;-71
2022/08/22 01:26:56;;;;;;;79.00;9.55;;;;;;;;;;1748060;80;21048;-71
2022/08/22 01:29:49;;;;;;;97.12;9.75;;;;;;;;;;1743675;80;21440;-70
2022/08/22 01:32:47;;;;;;;72.35;8.80;;;;;;;;;;1771390;80;21027;-70
2022/08/22 01:35:20;;;;;;;70.37;9.18;;;;;;;;;;1770605;80;21027;-70
2022/08/22 01:37:59;;;;;;;80.35;9.43;;;;;;;;;;1750637;80;21063;-70
2022/08/22 01:40:36;;;;;;;81.45;9.58;;;;;;;;;;1753000;80;21059;-71
2022/08/22 01:43:18;;;;;;;82.55;10.05;;;;;;;;;;1766346;80;21495;-70
2022/08/22 01:46:01;;;;;;;82.62;10.93;;;;;;;;;;1755301;80;21016;-70
2022/08/22 01:48:43;;;;;;;81.87;10.13;;;;;;;;;;1712995;82;21071;-70
2022/08/22 01:51:16;;;;;;;83.30;9.30;;;;;;;;;;1770213;80;21059;-70
2022/08/22 01:53:53;;;;;;;82.25;9.80;;;;;;;;;;1720681;80;21011;-70
2022/08/22 01:56:22;;;;;;;78.17;10.20;;;;;;;;;;1769343;80;21059;-70
2022/08/22 01:58:58;;;;;;;92.35;10.23;;;;;;;;;;1762149;80;21036;-70
2022/08/22 02:01:32;;;;;;;91.67;10.60;;;;;;;;;;1771489;80;21031;-70
2022/08/22 02:04:14;;;;;;;85.83;10.58;;;;;;;;;;1762139;80;21571;-70
2022/08/22 02:06:51;;;;;;;101.58;11.93;;;;;;;;;;1746072;81;21011;-70
2022/08/22 02:09:41;;;;;;;90.95;10.40;;;;;;;;;;1757832;80;21436;-70
2022/08/22 02:12:26;;;;;;;108.55;10.78;;;;;;;;;;1759129;80;21012;-70
2022/08/22 02:15:09;;;;;;;96.82;10.28;;;;;;;;;;1754438;80;21076;-69
2022/08/22 02:18:01;;;;;;;93.22;10.53;;;;;;;;;;1745850;80;21039;-70
2022/08/22 02:20:44;;;;;;;82.00;10.32;;;;;;;;;;1769300;80;21044;-70
2022/08/22 02:23:34;;;;;;;85.85;10.95;;;;;;;;;;1768717;80;21066;-70
2022/08/22 02:26:04;;;;;;;96.63;9.93;;;;;;;;;;1764598;80;20992;-70
2022/08/22 02:28:56;;;;;;;98.67;11.03;;;;;;;;;;1755410;80;21074;-70
2022/08/22 02:31:35;;;;;;;92.12;10.88;;;;;;;;;;1747536;80;21016;-70
2022/08/22 02:34:15;;;;;;;89.15;9.80;;;;;;;;;;1747381;80;21026;-70
2022/08/22 02:36:52;;;;;;;92.80;10.32;;;;;;;;;;1769467;81;21515;-71
2022/08/22 02:39:28;;;;;;;85.57;10.82;;;;;;;;;;1778044;80;20992;-69
2022/08/22 02:41:58;;;;;;;94.15;10.32;;;;;;;;;;1760441;80;21036;-70
2022/08/22 02:44:34;;;;;;;84.65;10.08;;;;;;;;;;1750860;80;21028;-70
2022/08/22 02:47:13;;;;;;;95.50;9.85;;;;;;;;;;1750377;81;21075;-69
2022/08/22 02:50:00;;;;;;;95.50;10.32;;;;;;;;;;1740463;81;20981;-69
2022/08/22 02:52:39;;;;;;;78.20;9.78;;;;;;;;;;1741095;81;21000;-70
2022/08/22 02:55:12;;;;;;;76.97;9.33;;;;;;;;;;1751086;80;21046;-69
2022/08/22 02:57:43;;;;;;;83.10;10.28;;;;;;;;;;1754423;80;21086;-70
2022/08/22 03:00:23;;;;;;;96.60;11.38;;;;;;;;;;1761728;80;21152;-70
2022/08/22 03:02:59;;;;;;;91.75;9.65;;;;;;;;;;1757978;80;21563;-69
2022/08/22 03:05:39;;;;;;;98.65;10.20;;;;;;;;;;1753116;80;21056;-69
2022/08/22 03:08:21;;;;;;;81.08;9.28;;;;;;;;;;1769251;80;21027;-69
2022/08/22 03:11:17;;;;;;;97.47;10.95;;;;;;;;;;1760529;80;20996;-69
2022/08/22 03:14:23;;;;;;;99.95;11.00;;;;;;;;;;1762014;80;21597;-69
2022/08/22 03:17:00;;;;;;;94.75;10.05;;;;;;;;;;1750168;80;21059;-69
2022/08/22 03:20:06;;;;;;;85.97;10.38;;;;;;;;;;1775837;80;20984;-69
2022/08/22 03:22:48;;;;;;;88.72;10.95;;;;;;;;;;1771770;80;21514;-69
2022/08/22 03:25:39;;;;;;;84.35;9.18;;;;;;;;;;1772608;80;21050;-69
2022/08/22 03:28:15;;;;;;;92.17;10.32;;;;;;;;;;1772663;80;21020;-70
2022/08/22 03:30:57;;;;;;;81.55;9.60;;;;;;;;;;1719480;81;21087;-69
2022/08/22 03:33:26;;;;;;;87.15;10.15;;;;;;;;;;1747894;80;21017;-69
2022/08/22 03:36:16;;;;;;;91.60;8.95;;;;;;;;;;1752691;80;21007;-70
2022/08/22 03:38:49;;;;;;;71.33;9.15;;;;;;;;;;1773626;80;21035;-69
2022/08/22 03:41:41;;;;;;;83.82;9.25;;;;;;;;;;1773604;80;21067;-69
2022/08/22 03:44:34;;;;;;;77.87;9.75;;;;;;;;;;1779183;80;21016;-70
2022/08/22 03:47:19;;;;;;;67.95;8.88;;;;;;;;;;1749001;80;21590;-70
2022/08/22 03:49:53;;;;;;;72.47;9.70;;;;;;;;;;1678499;81;21059;-70
2022/08/22 03:53:07;;;;;;;75.55;8.60;;;;;;;;;;1742418;80;21035;-70
2022/08/22 03:55:59;;;;;;;81.50;9.43;;;;;;;;;;1751567;80;21092;-69
2022/08/22 03:58:45;;;;;;;80.57;9.10;;;;;;;;;;1763367;80;20991;-70
2022/08/22 04:01:36;;;;;;;75.05;10.03;;;;;;;;;;1752601;80;21039;-70
2022/08/22 04:04:33;;;;;;;79.95;9.35;;;;;;;;;;1777454;80;21159;-69
2022/08/22 04:07:20;;;;;;;84.83;9.83;;;;;;;;;;1782073;80;21061;-70
2022/08/22 04:09:57;;;;;;;85.07;9.95;;;;;;;;;;1780065;80;21031;-70
2022/08/22 04:12:51;;;;;;;70.28;8.28;;;;;;;;;;1761671;80;21044;-70
2022/08/22 04:15:38;;;;;;;64.40;9.15;;;;;;;;;;1746577;80;21060;-70
2022/08/22 04:18:35;;;;;;;69.22;8.13;;;;;;;;;;1744058;80;21546;-70
2022/08/22 04:21:08;;;;;;;70.28;8.70;;;;;;;;;;1764901;80;21066;-70
2022/08/22 04:23:48;;;;;;;72.12;8.63;;;;;;;;;;1762540;80;21008;-69
2022/08/22 04:26:27;;;;;;;67.87;7.90;;;;;;;;;;1763529;80;21578;-70
2022/08/22 04:29:03;;;;;;;72.35;9.05;;;;;;;;;;1759974;80;21043;-69
2022/08/22 04:31:33;;;;;;;67.25;8.65;;;;;;;;;;1740761;80;21063;-69
2022/08/22 04:34:03;;;;;;;63.02;8.63;;;;;;;;;;1781213;80;21483;-70
2022/08/22 04:36:49;;;;;;;82.20;8.58;;;;;;;;;;1762864;80;21016;-70
2022/08/22 04:39:22;;;;;;;65.67;8.10;;;;;;;;;;1764478;80;21078;-70
2022/08/22 04:41:59;;;;;;;74.67;8.20;;;;;;;;;;1764958;80;21028;-70
2022/08/22 04:44:29;;;;;;;71.15;7.90;;;;;;;;;;1774998;80;21060;-70
2022/08/22 04:46:59;;;;;;;70.12;7.97;;;;;;;;;;1786270;80;21055;-70
2022/08/22 04:49:42;;;;;;;60.98;8.50;;;;;;;;;;1757288;80;21032;-70
2022/08/22 04:52:35;;;;;;;69.20;8.10;;;;;;;;;;1748187;80;21067;-70
2022/08/22 04:55:11;;;;;;;71.28;7.42;;;;;;;;;;1774780;80;20988;-70
2022/08/22 04:57:42;;;;;;;72.05;8.05;;;;;;;;;;1778987;80;21065;-70
2022/08/22 05:00:10;;;;;;;68.45;8.03;;;;;;;;;;1768359;80;21040;-70
2022/08/22 05:02:39;;;;;;;58.58;7.50;;;;;;;;;;1772074;80;21023;-70
2022/08/22 05:05:13;;;;;;;75.45;9.03;;;;;;;;;;1766737;80;21031;-69
2022/08/22 05:07:48;;;;;;;73.55;8.45;;;;;;;;;;1759444;80;21539;-69
2022/08/22 05:10:18;;;;;;;58.60;8.18;;;;;;;;;;1752734;80;21508;-70
2022/08/22 05:12:48;;;;;;;60.08;8.78;;;;;;;;;;1752629;80;21519;-69
2022/08/22 05:15:21;;;;;;;63.17;8.73;;;;;;;;;;1751177;80;21531;-70
2022/08/22 05:17:52;;;;;;;58.40;8.48;;;;;;;;;;1771325;80;21016;-69
2022/08/22 05:20:21;;;;;;;61.45;8.03;;;;;;;;;;1763699;80;21107;-69
2022/08/22 05:22:58;;;;;;;63.48;7.80;;;;;;;;;;1741551;80;21048;-69
2022/08/22 05:25:28;;;;;;;55.33;7.25;;;;;;;;;;1746492;80;21106;-69
2022/08/22 05:28:01;;;;;;;63.25;6.67;;;;;;;;;;1761617;80;21028;-69
2022/08/22 05:30:31;;;;;;;53.33;7.10;;;;;;;;;;1749365;80;21066;-69
2022/08/22 05:33:07;;;;;;;56.70;7.62;;;;;;;;;;1764919;79;21028;-70
2022/08/22 05:35:37;;;;;;;51.37;6.62;;;;;;;;;;1749710;80;21015;-69
2022/08/22 05:38:06;;;;;;;53.35;6.67;;;;;;;;;;1771153;79;21366;-70
2022/08/22 05:40:36;;;;;;;56.20;6.47;;;;;;;;;;1748836;80;21035;-70
2022/08/22 05:43:04;;;;;;;54.55;6.47;;;;;;;;;;1769567;80;20995;-70
2022/08/22 05:45:33;;;;;;;70.50;7.53;;;;;;;;;;1751646;80;21511;-70
2022/08/22 05:48:05;;;;;;;54.95;8.08;;;;;;;;;;1760481;81;21103;-70
2022/08/22 05:50:39;;;;;;;52.30;6.28;;;;;;;;;;1756875;80;21038;-70
2022/08/22 05:53:13;;;;;;;;;;;;;;;;;;1769544;80;21016;-70
2022/08/22 05:55:43;;;;;;;60.60;6.37;;;;;;;;;;1773995;80;20127;-70
2022/08/22 05:58:33;;;;;;;58.75;6.22;;;;;;;;;;1767150;80;21016;-70
2022/08/22 06:01:17;;;;;;;48.63;6.72;;;;;;;;;;1740204;80;21001;-69
2022/08/22 06:03:59;;;;;;;53.57;6.70;;;;;;;;;;1761353;79;21007;-70
2022/08/22 06:06:27;;;;;;;54.23;6.03;;;;;;;;;;1766112;79;21024;-70
2022/08/22 06:09:14;;;;;;;45.17;6.65;;;;;;;;;;1772619;79;21518;-70
2022/08/22 06:11:48;;;;;;;57.00;6.75;;;;;;;;;;1741332;82;21004;-70
2022/08/22 06:14:46;;;;;;;46.75;5.95;;;;;;;;;;1762965;80;21027;-69
2022/08/22 06:17:19;;;;;;;40.80;5.50;;;;;;;;;;1759710;80;21031;-70
2022/08/22 06:19:48;;;;;;;47.67;5.30;;;;;;;;;;1754135;80;21150;-70
2022/08/22 06:22:20;;;;;;;47.95;5.75;;;;;;;;;;1753497;80;21027;-70
2022/08/22 06:24:47;;;;;;;50.38;6.00;;;;;;;;;;1763261;80;21543;-69
2022/08/22 06:27:15;;;;;;;50.48;6.62;;;;;;;;;;1781395;80;21109;-70
2022/08/22 06:29:48;;;;;;;43.25;5.92;;;;;;;;;;1766343;80;21099;-69
2022/08/22 06:32:21;;;;;;;45.28;6.08;;;;;;;;;;1732602;82;21095;-69
2022/08/22 06:34:49;;;;;;;57.20;6.25;;;;;;;;;;1686179;84;21562;-69
2022/08/22 06:37:23;;;;;;;54.27;6.85;;;;;;;;;;1686180;83;21042;-69
2022/08/22 06:39:51;;;;;;;38.58;5.95;;;;;;;;;;1696919;83;21058;-70
2022/08/22 06:42:26;;;;;;;53.58;6.20;;;;;;;;;;1692650;83;21109;-69
2022/08/22 06:45:08;;;;;;;50.65;5.97;;;;;;;;;;1703473;83;21116;-70
2022/08/22 06:47:49;;;;;;;47.30;5.20;;;;;;;;;;1755549;80;21094;-69
2022/08/22 06:50:26;;;;;;;46.23;5.10;;;;;;;;;;1763079;80;21098;-70
2022/08/22 06:53:03;;;;;;;45.40;5.40;;;;;;;;;;1717131;82;21058;-69
2022/08/22 06:55:31;;;;;;;52.43;6.37;;;;;;;;;;1766425;80;21187;-69
2022/08/22 06:58:02;;;;;;;40.98;5.30;;;;;;;;;;1766978;80;21067;-69
2022/08/22 07:00:32;;;;;;;45.83;5.78;;;;;;;;;;1733260;82;21055;-69
2022/08/22 07:03:06;;;;;;;47.53;5.95;;;;;;;;;;1769220;80;21042;-70
2022/08/22 07:05:37;;;;;;;;;;;;;;;;;;1771628;80;21101;-69
2022/08/22 07:08:12;;;;;;;40.67;4.90;;;;;;;;;;1749988;81;20152;-70
2022/08/22 07:10:42;;;;;;;40.50;4.85;;;;;;;;;;1764541;80;21069;-70
2022/08/22 07:13:14;;;;;;;46.37;4.97;;;;;;;;;;1769459;80;21016;-70
2022/08/22 07:15:42;;;;;;;48.15;5.72;;;;;;;;;;1760545;80;21023;-70
2022/08/22 07:18:15;;;;;;;41.10;5.33;;;;;;;;;;1758788;80;21074;-70
2022/08/22 07:20:46;;;;;;;40.38;5.05;;;;;;;;;;1758292;80;21039;-70
2022/08/22 07:23:33;;;;;;;50.70;5.08;;;;;;;;;;1762553;79;21506;-70
2022/08/22 07:26:09;;;;;;;33.73;4.90;;;;;;;;;;1776253;79;21015;-70
2022/08/22 07:28:45;;;;;;;41.63;5.03;;;;;;;;;;1730436;79;21011;-70
2022/08/22 07:31:30;;;;;;;38.78;5.08;;;;;;;;;;1774868;79;21029;-70
2022/08/22 07:34:13;;;;;;;37.98;4.92;;;;;;;;;;1764968;79;21027;-70
2022/08/22 07:36:55;;;;;;;38.98;4.65;;;;;;;;;;1759997;80;21545;-70
2022/08/22 07:39:38;;;;;;;40.88;4.45;;;;;;;;;;1787122;79;21019;-70
2022/08/22 07:42:11;;;;;;;60.00;8.30;;;;;;;;;;1749784;81;21024;-70
2022/08/22 07:45:12;;;;;;;37.35;4.33;;;;;;;;;;1797634;79;21000;-70
2022/08/22 07:47:46;;;;;;;48.55;5.83;;;;;;;;;;1792664;79;21544;-70
2022/08/22 07:50:13;;;;;;;;;;;;;;;;;;1807380;79;21079;-70
2022/08/22 07:52:42;;;;;;;32.98;4.72;;;;;;;;;;1791806;79;20103;-69
2022/08/22 07:55:22;;;;;;;31.75;3.98;;;;;;;;;;1774616;79;21053;-70
2022/08/22 07:58:00;;;;;;;35.10;4.83;;;;;;;;;;1766559;80;21000;-70
2022/08/22 08:00:28;;;;;;;36.38;4.80;;;;;;;;;;1759964;80;21550;-70
2022/08/22 08:02:57;;;;;;;29.75;4.58;;;;;;;;;;1746060;80;21559;-70
2022/08/22 08:05:27;;;;;;;37.58;4.60;;;;;;;;;;1739268;81;21035;-70
2022/08/22 08:07:56;;;;;;;34.45;4.53;;;;;;;;;;1722474;81;20964;-70
2022/08/22 08:10:27;;;;;;;39.20;4.53;;;;;;;;;;1730194;82;21020;-70
2022/08/22 08:12:57;;;;;;;39.10;4.15;;;;;;;;;;1724572;82;21078;-70
2022/08/22 08:15:24;;;;;;;40.67;4.47;;;;;;;;;;1686693;83;21031;-71
2022/08/22 08:17:56;;;;;;;44.93;5.78;;;;;;;;;;1673116;83;21040;-70
2022/08/22 08:20:25;;;;;;;34.48;4.47;;;;;;;;;;1696136;84;21049;-70
2022/08/22 08:22:53;;;;;;;36.65;4.03;;;;;;;;;;1748989;81;21023;-71
2022/08/22 08:25:24;;;;;;;35.20;4.28;;;;;;;;;;1751384;81;21495;-70
2022/08/22 08:30:43;;;;;;;31.70;4.62;;;;;;;;;;1696994;83;21504;-71
2022/08/22 08:33:13;;;;;;;37.98;4.92;;;;;;;;;;1714590;83;21089;-70
2022/08/22 08:35:43;;;;;;;34.63;4.03;;;;;;;;;;1714251;83;21124;-70
2022/08/22 08:38:22;;;;;;;26.97;4.40;;;;;;;;;;1754380;81;21035;-70
2022/08/22 08:41:08;;;;;;;37.98;4.30;;;;;;;;;;1716515;83;21541;-71
2022/08/22 08:44:04;;;;;;;33.73;4.10;;;;;;;;;;1718347;83;21565;-71
2022/08/22 08:46:41;;;;;;;36.88;5.45;;;;;;;;;;1618340;87;21121;-69
2022/08/22 08:49:29;;;;;;;31.90;4.45;;;;;;;;;;1682169;85;21070;-71
2022/08/22 08:52:20;;;;;;;40.30;4.87;;;;;;;;;;1715412;83;21061;-71
2022/08/22 08:55:09;;;;;;;39.00;4.25;;;;;;;;;;1717958;83;21030;-71
2022/08/22 08:57:40;;;;;;;29.40;4.42;;;;;;;;;;1715908;82;21561;-71
2022/08/22 09:00:16;;;;;;;31.30;4.17;;;;;;;;;;1752405;81;21058;-70
2022/08/22 09:03:02;;;;;;;42.17;5.35;;;;;;;;;;1761395;80;21474;-70
2022/08/22 09:05:59;;;;;;;31.27;4.47;;;;;;;;;;1744297;81;21079;-70
2022/08/22 09:08:41;;;;;;;35.20;4.62;;;;;;;;;;1714916;83;21031;-70
2022/08/22 09:11:29;;;;;;;29.15;4.45;;;;;;;;;;1713180;83;21525;-70
2022/08/22 09:14:32;;;;;;;33.60;4.35;;;;;;;;;;1753804;81;21471;-70
2022/08/22 09:17:26;;;;;;;35.48;4.87;;;;;;;;;;1714288;83;21601;-69
2022/08/22 09:20:08;;;;;;;35.00;4.85;;;;;;;;;;1753870;81;21015;-69
2022/08/22 09:22:51;;;;;;;36.77;4.45;;;;;;;;;;1718506;83;21124;-70
2022/08/22 09:25:21;;;;;;;34.70;4.22;;;;;;;;;;1716459;83;21035;-70
2022/08/22 09:27:52;;;;;;;38.83;4.58;;;;;;;;;;1717137;83;21028;-70
2022/08/22 09:30:22;;;;;;;31.70;4.37;;;;;;;;;;1752701;81;21058;-70
2022/08/22 09:33:01;;;;;;;32.73;5.15;;;;;;;;;;1752132;81;21023;-70
2022/08/22 09:35:58;;;;;;;33.48;4.42;;;;;;;;;;1718228;83;21043;-70
2022/08/22 09:38:37;;;;;;;35.70;4.65;;;;;;;;;;1719224;83;21075;-69
2022/08/22 09:41:26;;;;;;;35.43;4.78;;;;;;;;;;1716789;83;21073;-70
2022/08/22 09:44:19;;;;;;;33.00;4.72;;;;;;;;;;1752808;81;21079;-70
2022/08/22 09:47:00;;;;;;;26.43;4.33;;;;;;;;;;1718597;83;21078;-70
2022/08/22 09:49:38;;;;;;;31.30;4.73;;;;;;;;;;1716203;83;21058;-70
2022/08/22 09:52:13;;;;;;;27.40;5.20;;;;;;;;;;1754578;81;21051;-70
2022/08/22 09:54:46;;;;;;;32.33;5.58;;;;;;;;;;1711614;83;21059;-70
2022/08/22 09:57:28;;;;;;;26.13;4.37;;;;;;;;;;1745453;81;21066;-70
2022/08/22 10:00:11;;;;;;;31.93;5.10;;;;;;;;;;1716105;83;21118;-70
2022/08/22 10:02:59;;;;;;;19.35;4.53;;;;;;;;;;1719927;83;21051;-70
2022/08/22 10:05:34;;;;;;;28.40;5.00;;;;;;;;;;1753712;81;21113;-70
2022/08/22 10:08:37;;;;;;;21.50;4.72;;;;;;;;;;1748679;81;21549;-70
2022/08/22 10:11:25;;;;;;;30.92;5.03;;;;;;;;;;1753569;81;21095;-70
2022/08/22 10:14:01;;;;;;;31.02;5.60;;;;;;;;;;1713768;83;21070;-70
2022/08/22 10:17:04;;;;;;;29.57;6.53;;;;;;;;;;1715386;83;21035;-69
2022/08/22 10:19:40;;;;;;;30.88;5.58;;;;;;;;;;1689871;83;21550;-69
2022/08/22 10:22:26;;;;;;;25.20;4.95;;;;;;;;;;1731515;81;21046;-68
2022/08/22 10:24:57;;;;;;;30.50;4.80;;;;;;;;;;1753116;81;21532;-68
2022/08/22 10:27:30;;;;;;;41.88;4.97;;;;;;;;;;1718004;82;21030;-68
2022/08/22 10:30:07;;;;;;;34.10;4.70;;;;;;;;;;1728870;81;21007;-69
2022/08/22 10:32:37;;;;;;;21.33;4.70;;;;;;;;;;1715990;82;21090;-69
2022/08/22 10:35:07;;;;;;;23.92;4.22;;;;;;;;;;1661813;83;21015;-69
2022/08/22 10:37:38;;;;;;;29.15;4.28;;;;;;;;;;1748020;81;21093;-69
2022/08/22 10:40:08;;;;;;;25.20;4.00;;;;;;;;;;1751763;81;21078;-68
2022/08/22 10:42:41;;;;;;;22.65;4.00;;;;;;;;;;1754037;81;21063;-69
2022/08/22 10:45:23;;;;;;;23.92;4.53;;;;;;;;;;1733422;81;21511;-68
2022/08/22 10:47:59;;;;;;;20.57;3.83;;;;;;;;;;1672825;83;21051;-69
2022/08/22 10:50:35;;;;;;;28.55;3.40;;;;;;;;;;1713523;83;21558;-69
2022/08/22 10:53:32;;;;;;;24.77;3.77;;;;;;;;;;1713822;83;21038;-68
2022/08/22 10:56:10;;;;;;;26.15;3.50;;;;;;;;;;1750898;80;21109;-69
2022/08/22 10:58:55;;;;;;;24.15;3.72;;;;;;;;;;1716034;82;21074;-69
2022/08/22 11:01:25;;;;;;;25.08;4.05;;;;;;;;;;1716765;83;21106;-68
2022/08/22 11:03:55;;;;;;;34.18;4.00;;;;;;;;;;1755280;81;21040;-68
2022/08/22 11:06:34;;;;;;;29.92;4.40;;;;;;;;;;1753876;81;21031;-69
2022/08/22 11:09:10;;;;;;;20.82;3.60;;;;;;;;;;1717172;83;21024;-69
2022/08/22 11:11:46;;;;;;;20.27;3.60;;;;;;;;;;1751077;80;21562;-69
2022/08/22 11:14:17;;;;;;;20.68;3.77;;;;;;;;;;1749668;81;21546;-68
2022/08/22 11:17:16;;;;;;;27.82;3.80;;;;;;;;;;1752274;81;21526;-69
2022/08/22 11:20:19;;;;;;;25.95;4.35;;;;;;;;;;1717858;83;21093;-68
2022/08/22 11:23:02;;;;;;;22.00;3.37;;;;;;;;;;1693854;83;21019;-69
2022/08/22 11:25:40;;;;;;;30.85;3.70;;;;;;;;;;1687903;84;21050;-68
2022/08/22 11:28:18;;;;;;;19.70;3.52;;;;;;;;;;1751604;81;21028;-69
2022/08/22 11:31:21;;;;;;;27.42;3.85;;;;;;;;;;1717128;83;21043;-68
2022/08/22 11:34:00;;;;;;;33.95;4.37;;;;;;;;;;1715868;83;21093;-69
2022/08/22 11:36:37;;;;;;;32.20;3.58;;;;;;;;;;1751474;81;21506;-69
2022/08/22 11:39:23;;;;;;;27.27;3.27;;;;;;;;;;1749933;81;21020;-68
2022/08/22 11:42:05;;;;;;;22.00;3.60;;;;;;;;;;1711103;83;21093;-68
2022/08/22 11:44:54;;;;;;;32.00;3.70;;;;;;;;;;1708133;81;21023;-69
2022/08/22 11:47:25;;;;;;;25.12;3.55;;;;;;;;;;1749228;81;21578;-68
2022/08/22 11:49:58;;;;;;;23.35;3.75;;;;;;;;;;1750843;81;21042;-68
2022/08/22 11:52:26;;;;;;;;;;;;;;;;;;1755308;81;21051;-69
2022/08/22 11:55:23;;;;;;;23.00;3.47;;;;;;;;;;1749005;81;20121;-68
2022/08/22 11:57:57;;;;;;;26.25;3.12;;;;;;;;;;1751443;81;21051;-69
2022/08/22 12:00:52;;;;;;;23.60;3.12;;;;;;;;;;1716438;83;21042;-69
2022/08/22 12:03:34;;;;;;;27.55;4.08;;;;;;;;;;1723721;82;21028;-68
2022/08/22 12:06:20;;;;;;;25.23;3.33;;;;;;;;;;1758373;80;21076;-69
2022/08/22 12:08:50;;;;;;;19.12;3.30;;;;;;;;;;1751135;81;21043;-69
2022/08/22 12:11:39;;;;;;;29.05;3.50;;;;;;;;;;1768390;80;21029;-70
2022/08/22 12:14:09;;;;;;;29.87;3.75;;;;;;;;;;1763977;80;21067;-70
2022/08/22 12:16:42;;;;;;;23.52;3.20;;;;;;;;;;1762513;80;21075;-70
2022/08/22 12:19:15;;;;;;;19.92;2.87;;;;;;;;;;1769171;80;21503;-70
2022/08/22 12:22:19;;;;;;;32.95;3.67;;;;;;;;;;1753000;80;21054;-70
2022/08/22 12:25:13;;;;;;;27.02;3.65;;;;;;;;;;1751767;80;21072;-71
2022/08/22 12:27:47;;;;;;;36.28;4.37;;;;;;;;;;1758420;80;21062;-70
2022/08/22 12:30:34;;;;;;;26.07;4.25;;;;;;;;;;1775429;80;21071;-69
2022/08/22 12:33:04;;;;;;;22.62;3.33;;;;;;;;;;1762232;80;21023;-70
2022/08/22 12:35:44;;;;;;;28.30;4.03;;;;;;;;;;1758476;80;21023;-69
2022/08/22 12:38:43;;;;;;;23.92;3.75;;;;;;;;;;1760257;80;21110;-69
2022/08/22 12:41:30;;;;;;;29.98;3.55;;;;;;;;;;1715407;81;21028;-69
2022/08/22 12:44:00;;;;;;;21.62;3.42;;;;;;;;;;1759141;80;21068;-69
2022/08/22 12:46:53;;;;;;;19.40;3.00;;;;;;;;;;1757945;80;21102;-69
2022/08/22 12:49:39;;;;;;;32.60;3.70;;;;;;;;;;1765186;81;21515;-69
2022/08/22 12:52:15;;;;;;;26.57;3.90;;;;;;;;;;1756871;80;21165;-69
2022/08/22 12:55:01;;;;;;;26.27;3.92;;;;;;;;;;1762499;80;21074;-69
2022/08/22 12:57:37;;;;;;;29.72;3.50;;;;;;;;;;1745519;81;21019;-69
2022/08/22 13:00:30;;;;;;;19.57;3.05;;;;;;;;;;1760805;81;21036;-69
2022/08/22 13:03:01;;;;;;;32.93;3.52;;;;;;;;;;1770199;81;21008;-69
2022/08/22 13:05:29;;;;;;;18.77;2.80;;;;;;;;;;1756027;80;21039;-70
2022/08/22 13:08:06;;;;;;;24.23;3.12;;;;;;;;;;1762026;81;21483;-70
2022/08/22 13:10:44;;;;;;;23.50;3.30;;;;;;;;;;1755178;80;21524;-69
2022/08/22 13:13:17;;;;;;;31.35;3.62;;;;;;;;;;1756455;81;21048;-68
2022/08/22 13:15:55;;;;;;;18.25;3.80;;;;;;;;;;1750989;81;21075;-69
2022/08/22 13:18:25;;;;;;;22.95;3.12;;;;;;;;;;1742777;80;21464;-68
2022/08/22 13:20:54;;;;;;;24.92;3.72;;;;;;;;;;1737302;80;21020;-70
2022/08/22 13:23:32;;;;;;;31.12;2.98;;;;;;;;;;1753312;81;21004;-69
2022/08/22 13:26:03;;;;;;;23.60;2.98;;;;;;;;;;1716840;83;21034;-69
2022/08/22 13:28:33;;;;;;;23.47;3.10;;;;;;;;;;1716537;83;21518;-69
2022/08/22 13:31:01;;;;;;;22.82;4.40;;;;;;;;;;1717199;83;21494;-69
2022/08/22 13:33:31;;;;;;;21.82;3.15;;;;;;;;;;1757267;81;21059;-70
2022/08/22 13:36:05;;;;;;;24.65;3.00;;;;;;;;;;1765735;80;21047;-70
2022/08/22 13:38:52;;;;;;;18.02;3.35;;;;;;;;;;1756692;81;21077;-70
2022/08/22 13:41:28;;;;;;;22.45;2.80;;;;;;;;;;1729411;82;21015;-69
2022/08/22 13:44:08;;;;;;;15.78;2.83;;;;;;;;;;1755485;80;21031;-70
2022/08/22 13:46:36;;;;;;;21.30;2.87;;;;;;;;;;1749413;80;21070;-69
2022/08/22 13:49:08;;;;;;;22.27;2.80;;;;;;;;;;1781386;79;21043;-69
2022/08/22 13:51:51;;;;;;;15.38;2.70;;;;;;;;;;1774176;79;21067;-68
2022/08/22 13:54:47;;;;;;;23.30;3.17;;;;;;;;;;1782250;79;20997;-69
2022/08/22 13:57:21;;;;;;;16.40;2.98;;;;;;;;;;1783606;79;20996;-70
2022/08/22 13:59:53;;;;;;;16.10;2.90;;;;;;;;;;1709583;80;21050;-70
2022/08/22 14:02:42;;;;;;;16.80;2.70;;;;;;;;;;1730863;80;21018;-69
2022/08/22 14:05:18;;;;;;;20.92;2.90;;;;;;;;;;1740091;79;21010;-69
2022/08/22 14:07:51;;;;;;;15.75;2.42;;;;;;;;;;1762690;80;21004;-69
2022/08/22 14:10:19;;;;;;;;;;;;;;;;;;1757325;81;21011;-69
2022/08/22 14:12:59;;;;;;;21.85;3.65;;;;;;;;;;1746094;81;20389;-69
2022/08/22 14:15:29;;;;;;;22.25;4.10;;;;;;;;;;1752705;81;21127;-69
2022/08/22 14:18:11;;;;;;;20.65;2.87;;;;;;;;;;1753438;81;20995;-69
2022/08/22 14:20:38;;;;;;;18.62;2.50;;;;;;;;;;1754555;81;20999;-69
2022/08/22 14:23:27;;;;;;;22.60;2.75;;;;;;;;;;1727525;82;21063;-70
2022/08/22 14:25:55;;;;;;;15.43;2.47;;;;;;;;;;1727677;82;21021;-69
2022/08/22 14:28:27;;;;;;;19.07;2.95;;;;;;;;;;1694240;84;21057;-69
2022/08/22 14:31:13;;;;;;;19.90;2.80;;;;;;;;;;1688351;83;21115;-70
2022/08/22 14:33:48;;;;;;;25.08;2.77;;;;;;;;;;1643902;85;21077;-68
2022/08/22 14:36:25;;;;;;;18.95;3.15;;;;;;;;;;1786132;79;21024;-69
2022/08/22 14:38:58;;;;;;;21.97;2.87;;;;;;;;;;1735531;81;21079;-68
2022/08/22 14:41:38;;;;;;;15.98;2.47;;;;;;;;;;1699515;82;21542;-68
2022/08/22 14:44:08;;;;;;;21.80;2.75;;;;;;;;;;1779704;79;21465;-69
2022/08/22 14:47:01;;;;;;;21.35;3.08;;;;;;;;;;1723535;82;21588;-68
2022/08/22 14:49:53;;;;;;;19.80;3.75;;;;;;;;;;1709110;83;21028;-68
2022/08/22 14:52:32;;;;;;;21.82;3.25;;;;;;;;;;1736297;81;21146;-69
2022/08/22 14:55:06;;;;;;;22.07;2.72;;;;;;;;;;1708489;82;21049;-69
2022/08/22 14:57:35;;;;;;;17.35;2.70;;;;;;;;;;1697455;83;21039;-68
2022/08/22 15:00:10;;;;;;;27.65;2.90;;;;;;;;;;1703618;83;21063;-68
2022/08/22 15:02:33;;;;;;;17.70;2.58;;;;;;;;;;1726711;82;21116;-69
2022/08/22 15:05:04;;;;;;;16.82;2.72;;;;;;;;;;1712929;82;21608;-69
2022/08/22 15:07:33;;;;;;;14.30;2.50;;;;;;;;;;1733109;82;21073;-68
2022/08/22 15:10:03;;;;;;;16.85;2.55;;;;;;;;;;1728199;82;21088;-68
2022/08/22 15:12:39;;;;;;;17.92;2.75;;;;;;;;;;1718134;82;21049;-69
2022/08/22 15:15:31;;;;;;;18.67;2.62;;;;;;;;;;1710563;82;21037;-69
2022/08/22 15:17:59;;;;;;;18.60;2.75;;;;;;;;;;1771390;80;21079;-69
2022/08/22 15:20:34;;;;;;;20.17;2.62;;;;;;;;;;1756460;80;21060;-69
2022/08/22 15:23:04;;;;;;;19.57;2.52;;;;;;;;;;1784179;80;21173;-69
2022/08/22 15:25:41;;;;;;;17.02;2.58;;;;;;;;;;1760513;80;21046;-69
2022/08/22 15:28:14;;;;;;;18.32;2.70;;;;;;;;;;1763363;80;21030;-69
2022/08/22 15:30:45;;;;;;;13.90;2.40;;;;;;;;;;1767687;80;21064;-69
2022/08/22 15:33:15;;;;;;;21.68;2.60;;;;;;;;;;1765057;80;21102;-69
2022/08/22 15:35:43;;;;;;;21.87;2.62;;;;;;;;;;1756897;80;21503;-69
2022/08/22 15:38:31;;;;;;;18.67;2.90;;;;;;;;;;1780728;80;21029;-69
2022/08/22 15:41:24;;;;;;;16.70;2.80;;;;;;;;;;1748765;80;21131;-70